Погода Пугачевскаяна неделю

Волгоградская область, Россия

17 - 23 июля
  • 17июля
    Сегодня
    +25°
    +34°
    Ясно и безоблачно
    ВремяПогодаТемператураВлажностьДавлениеВетер, м/сВероятность осадков
    00:00Ясно и безоблачно+27°C50 %754 мм2.4 м/с2 %
    03:00Практически безоблачно+25°C61 %754 мм2.6 м/с2 %
    06:00Ясно и безоблачно+26°C56 %755 мм2.2 м/с2 %
    09:00Ясно и безоблачно+29°C37 %756 мм2.4 м/с2 %
    12:00Ясно и безоблачно+33°C34 %756 мм3.1 м/с2 %
    15:00Ясно и безоблачно+34°C31 %755 мм2.6 м/с2 %
    18:00Практически безоблачно+33°C32 %754 мм1.9 м/с2 %
    21:00Ясно и безоблачно+29°C47 %754 мм2.6 м/с2 %
  • 18июля
    Четверг
    +26°
    +36°
    Практически безоблачно
    ВремяПогодаТемператураВлажностьДавлениеВетер, м/сВероятность осадков
    00:00Ясно и безоблачно+27°C56 %754 мм2.1 м/с2 %
    03:00Ясно и безоблачно+25°C56 %754 мм2.0 м/с2 %
    06:00Ясно и безоблачно+27°C53 %755 мм1.4 м/с2 %
    09:00Ясно и безоблачно+30°C35 %754 мм1.5 м/с2 %
    12:00Ясно и безоблачно+34°C30 %754 мм2.3 м/с2 %
    15:00Практически безоблачно+35°C31 %753 мм2.1 м/с2 %
    18:00Практически безоблачно+35°C36 %752 мм1.1 м/с2 %
    21:00Ясно и безоблачно+31°C37 %752 мм3.0 м/с2 %
  • 19июля
    Пятница
    +23°
    +38°
    Облачно с прояснениями
    ВремяПогодаТемператураВлажностьДавлениеВетер, м/сВероятность осадков
    00:00Ясно и безоблачно+28°C51 %751 мм1.7 м/с2 %
    03:00Ясно и безоблачно+26°C57 %751 мм1.7 м/с2 %
    06:00Ясно и безоблачно+27°C54 %751 мм1.3 м/с2 %
    09:00Ясно и безоблачно+31°C35 %750 мм0.6 м/с2 %
    12:00Ясно и безоблачно+36°C28 %749 мм2.9 м/с1 %
    15:00Облачно с прояснениями+37°C32 %748 мм2.2 м/с11 %
    18:00Небольшая облачность+33°C44 %749 мм1.5 м/с19 %
    21:00Облачно с прояснениями+30°C54 %749 мм3.1 м/с2 %
  • 20июля
    Суббота
    +23°
    +35°
    Небольшая облачность
    ВремяПогодаТемператураВлажностьДавлениеВетер, м/сВероятность осадков
    00:00Практически безоблачно+26°C71 %749 мм3.7 м/с2 %
    03:00Практически безоблачно+25°C78 %748 мм4.4 м/с2 %
    06:00Ясно и безоблачно+24°C75 %749 мм3.8 м/с2 %
    09:00Облачно с прояснениями+28°C54 %749 мм3.9 м/с2 %
    12:00Небольшая облачность+32°C39 %749 мм3.8 м/с3 %
    15:00Небольшая облачность+35°C31 %748 мм3.1 м/с16 %
    18:00Небольшая облачность+34°C29 %748 мм2.2 м/с9 %
    21:00Облачно с прояснениями+30°C39 %749 мм4.0 м/с2 %
  • 21июля
    Воскресенье
    +24°
    +35°
    Ясно и безоблачно
    ВремяПогодаТемператураВлажностьДавлениеВетер, м/сВероятность осадков
    00:00Облачно с прояснениями+27°C46 %749 мм3.2 м/с2 %
    03:00Ясно и безоблачно+25°C53 %749 мм3.4 м/с2 %
    06:00Ясно и безоблачно+24°C54 %750 мм2.6 м/с4 %
    09:00Ясно и безоблачно+28°C40 %750 мм2.1 м/с4 %
    12:00Ясно и безоблачно+33°C28 %750 мм2.1 м/с2 %
    15:00Ясно и безоблачно+35°C24 %749 мм1.4 м/с7 %
    18:00Практически безоблачно+35°C26 %749 мм0.6 м/с6 %
    21:00Облачно с прояснениями+31°C41 %749 мм1.6 м/с2 %
Мы используем cookies
Соглашаюсь